Weather reports worldwide

Advertisment
Pershore college of horticulture, United Kingdom (99059): temperature & dewpoint: 08.12.2017 14:00:00 - 14.12.2017 14:00:00 (GMT)Pershore college of horticulture, United Kingdom (99059): temperature -20cm & temperature -100cm: 08.12.2017 14:00:00 - 14.12.2017 14:00:00 (GMT)Pershore college of horticulture, United Kingdom (99059): precipitation: 08.12.2017 14:00:00 - 14.12.2017 14:00:00 (GMT)
Date & Time tt [°C] td [°C] tt -20cm [°C] tt -100cm [°C] rr [mm]
14.12.2017 14:00:00 6,5 1,2 - - 0,0
14.12.2017 13:00:00 6,5 0,7 - - 0,0
14.12.2017 12:00:00 6,1 1,4 - - 0,0
14.12.2017 11:00:00 5,3 1,0 - - 0,0
14.12.2017 10:00:00 5,1 0,9 - - 0,0
14.12.2017 09:00:00 3,5 0,3 4,4 8,7 0,0
14.12.2017 08:00:00 3,3 0,2 - - 0,0
14.12.2017 07:00:00 3,8 0,1 - - 0,0
14.12.2017 06:00:00 4,1 0,4 - - 0,0
14.12.2017 05:00:00 4,5 0,8 - - 0,0
14.12.2017 04:00:00 4,8 1,1 - - 0,0
14.12.2017 03:00:00 4,7 1,2 - - 0,0
14.12.2017 02:00:00 4,2 1,3 - - 0,0
14.12.2017 01:00:00 4,2 1,1 - - 0,0
14.12.2017 00:00:00 3,5 0,6 - - 0,0
13.12.2017 23:00:00 3,7 -0,5 - - 0,2
13.12.2017 22:00:00 3,4 0,6 - - 0,0
13.12.2017 21:00:00 3,5 1,8 - - 0,2
13.12.2017 20:00:00 2,9 1,9 - - 0,4
13.12.2017 19:00:00 4,2 1,2 - - 0,0
13.12.2017 18:00:00 3,2 0,7 - - 0,0
13.12.2017 17:00:00 2,2 0,8 - - 0,0
13.12.2017 16:00:00 3,8 1,3 - - 1,2
13.12.2017 15:00:00 5,6 1,7 - - 3,6
13.12.2017 14:00:00 6,9 5,8 - - 7,0
13.12.2017 13:00:00 7,0 6,5 - - 6,2
13.12.2017 12:00:00 6,5 6,0 - - 0,6
13.12.2017 11:00:00 6,1 5,4 - - 0,2
13.12.2017 10:00:00 5,8 5,2 - - 0,0
13.12.2017 09:00:00 4,5 4,1 4,5 8,7 0,0
13.12.2017 08:00:00 3,9 3,2 - - 0,0
13.12.2017 07:00:00 4,5 3,1 - - 0,0
13.12.2017 06:00:00 4,7 3,7 - - 0,0
13.12.2017 05:00:00 4,5 3,6 - - 0,0
13.12.2017 04:00:00 4,5 4,2 - - 0,0
13.12.2017 03:00:00 3,6 3,5 - - 0,0
13.12.2017 02:00:00 4,2 4,0 - - 0,0
13.12.2017 01:00:00 5,1 4,6 - - 1,4
13.12.2017 00:00:00 5,7 5,1 - - 3,2
12.12.2017 23:00:00 5,1 3,9 - - 2,8
12.12.2017 22:00:00 4,9 3,3 - - 2,8
12.12.2017 21:00:00 4,3 2,6 - - 2,4
12.12.2017 20:00:00 4,2 1,9 - - 1,8
12.12.2017 19:00:00 3,6 1,8 - - 1,0
12.12.2017 18:00:00 3,1 1,5 - - 0,8
12.12.2017 17:00:00 3,2 1,9 - - 0,0
12.12.2017 16:00:00 2,0 1,0 - - 0,0
12.12.2017 15:00:00 2,3 1,0 - - 0,0
12.12.2017 14:00:00 2,1 0,4 - - 0,0
12.12.2017 13:00:00 3,1 0,9 - - 0,0
12.12.2017 12:00:00 0,7 -1,7 - - 0,0
12.12.2017 11:00:00 0,4 -0,8 - - 0,0
12.12.2017 10:00:00 -3,8 -4,4 - - 0,0
12.12.2017 09:00:00 -5,7 -6,3 4,9 9,0 0,0
12.12.2017 08:00:00 -6,6 -7,1 - - 0,0
12.12.2017 07:00:00 -3,3 -3,6 - - 0,0
12.12.2017 06:00:00 -6,8 -7,6 - - 0,0
12.12.2017 05:00:00 -5,7 -6,3 - - 0,0
12.12.2017 04:00:00 -5,0 -5,8 - - 0,0
12.12.2017 03:00:00 -2,9 -3,3 - - 0,0
12.12.2017 02:00:00 -3,5 -3,8 - - 0,0
12.12.2017 01:00:00 -3,9 -4,2 - - 0,0
12.12.2017 00:00:00 -4,4 -4,7 - - 0,0
11.12.2017 23:00:00 -3,7 -4,1 - - 0,0
11.12.2017 22:00:00 -3,4 -3,8 - - 0,0
11.12.2017 21:00:00 -3,1 -3,8 - - 0,0
11.12.2017 20:00:00 -3,0 -3,8 - - 0,0
11.12.2017 19:00:00 -2,7 -3,8 - - 0,0
11.12.2017 18:00:00 -2,1 -3,4 - - 0,0
11.12.2017 17:00:00 -1,5 -3,5 - - 0,0
11.12.2017 16:00:00 -0,1 -3,2 - - 0,0
11.12.2017 15:00:00 0,5 -2,6 - - 0,0
11.12.2017 14:00:00 0,9 -2,5 - - 0,0
11.12.2017 13:00:00 0,3 -2,8 - - 0,0
11.12.2017 12:00:00 -1,0 -3,3 - - 0,0
11.12.2017 11:00:00 -0,6 -2,7 - - 0,0
11.12.2017 10:00:00 0,4 -1,8 - - 0,4
11.12.2017 09:00:00 1,1 -1,1 5,2 9,2 0,2
11.12.2017 08:00:00 0,8 -1,0 - - 0,4
11.12.2017 07:00:00 1,0 0,0 - - 0,4
11.12.2017 06:00:00 0,9 0,0 - - 0,4
11.12.2017 05:00:00 0,8 0,1 - - 0,4
11.12.2017 04:00:00 0,6 0,3 - - 0,2
11.12.2017 03:00:00 0,6 0,2 - - 0,2
11.12.2017 02:00:00 0,7 0,3 - - 0,2
11.12.2017 01:00:00 0,7 0,4 - - 0,2
11.12.2017 00:00:00 0,8 0,6 - - 0,2
10.12.2017 23:00:00 0,6 0,6 - - 0,0
10.12.2017 22:00:00 0,5 0,5 - - 0,0
10.12.2017 21:00:00 0,2 0,2 - - 0,0
10.12.2017 20:00:00 0,1 0,1 - - 0,0
10.12.2017 19:00:00 0,1 0,1 - - 0,2
10.12.2017 18:00:00 0,2 0,2 - - 0,2
10.12.2017 17:00:00 0,2 0,2 - - 0,0
10.12.2017 16:00:00 0,2 0,2 - - 0,0
10.12.2017 15:00:00 0,4 0,3 - - 0,4
10.12.2017 14:00:00 0,5 0,4 - - 0,4
10.12.2017 13:00:00 0,4 0,2 - - 0,2
10.12.2017 12:00:00 0,5 0,2 - - 0,2
10.12.2017 11:00:00 0,5 0,3 - - 0,0
10.12.2017 10:00:00 0,3 0,3 - - 0,0
10.12.2017 09:00:00 0,2 0,2 5,5 9,2 0,2
10.12.2017 08:00:00 0,3 0,2 - - 0,0
10.12.2017 07:00:00 0,3 0,3 - - 0,0
10.12.2017 06:00:00 0,2 0,2 - - 0,0
10.12.2017 05:00:00 0,3 0,2 - - 0,0
10.12.2017 04:00:00 0,0 -0,5 - - 0,0
10.12.2017 03:00:00 1,2 -1,9 - - 0,0
10.12.2017 02:00:00 1,3 -2,1 - - 0,0
10.12.2017 01:00:00 0,4 -2,4 - - 0,0
10.12.2017 00:00:00 0,4 -3,2 - - 0,0
09.12.2017 23:00:00 2,0 -2,2 - - 0,0
09.12.2017 22:00:00 1,8 -1,2 - - 0,0
09.12.2017 21:00:00 1,8 -1,0 - - 0,0
09.12.2017 20:00:00 2,3 -1,2 - - 0,0
09.12.2017 19:00:00 2,0 -1,1 - - 0,0
09.12.2017 18:00:00 1,8 -0,7 - - 0,0
09.12.2017 17:00:00 1,9 -0,4 - - 0,2
09.12.2017 16:00:00 2,1 -0,5 - - 0,0
09.12.2017 15:00:00 2,2 0,0 - - 0,0
09.12.2017 14:00:00 2,6 -0,2 - - 0,0
09.12.2017 13:00:00 2,5 -0,2 - - 0,2
09.12.2017 12:00:00 2,5 -0,4 - - 0,0
09.12.2017 11:00:00 1,5 -1,3 - - 0,0
09.12.2017 10:00:00 1,0 -1,5 - - 0,0
09.12.2017 09:00:00 -0,7 -2,4 5,9 9,4 0,0
09.12.2017 08:00:00 -1,3 -2,4 - - 0,0
09.12.2017 07:00:00 -1,3 -2,4 - - 0,0
09.12.2017 06:00:00 -1,4 -2,4 - - 0,0
09.12.2017 05:00:00 -2,1 -3,2 - - 0,0
09.12.2017 04:00:00 -1,8 -3,0 - - 0,0
09.12.2017 03:00:00 -1,0 -2,5 - - 0,0
09.12.2017 02:00:00 -1,4 -3,0 - - 0,0
09.12.2017 01:00:00 -0,8 -2,1 - - 0,0
09.12.2017 00:00:00 -0,1 -1,5 - - 0,0
08.12.2017 23:00:00 -0,2 -2,0 - - 0,0
08.12.2017 22:00:00 0,3 -1,8 - - 0,0
08.12.2017 21:00:00 0,3 -1,2 - - 0,0
08.12.2017 20:00:00 0,4 -0,8 - - 0,0
08.12.2017 19:00:00 0,6 -0,9 - - 0,0
08.12.2017 18:00:00 -0,1 -0,7 - - 0,0
08.12.2017 17:00:00 -0,3 -1,0 - - 0,0
08.12.2017 16:00:00 0,2 -0,5 - - 0,0
08.12.2017 15:00:00 1,6 0,1 - - 0,0
08.12.2017 14:00:00 1,5 0,5 - - 0,2

tt = temperature
td = dewpoint
tt -20cm = temperature -20cm
tt -100cm = temperature -100cm
rr = precipitation

Next stations